Andover, OH

4:23 AM EST on March 03, 2015 (GMT -0500)
Ashtabula County | Change Station
CLOSE
Current Station
Airport
Location: Ashtabula,
Elevation: 922 ft
Nearby Weather Stations
Active Advisory: Winter Weather Advisory

Elev 922 ft 41.78 °N, 80.70 °W | Updated 30 minutes ago

Partly Cloudy
Partly Cloudy
15 °F
Feels Like 8 °F
N
5
Wind Variable Wind from ESE

Today
High -- | Low -- °F
--% Chance of Precip.
Yesterday
High -- | Low -- °F
Precip. -- in
6:54 AM 6:14 PM
Waxing Gibbous, 95% visible
Pressure 30.36 in
Visibility 10.0 miles
Clouds Scattered Clouds 12000 ft
Windchill 8 °F
Dew Point 8 °F
Humidity 74%
Rainfall 0.00 in
Snow Depth Not available.
UV 0 out of 12
Pollen .40 out of 12
Air Quality Not available.
Flu Activity Not available.
METAR KHZY 030853Z AUTO 11004KT 10SM SCT120 M09/M13 A3031 RMK AO2 SLP280 T10941133 56019

More Conditions Fewer Conditions

Pressure 30.36 in
Visibility 10.0 miles
Clouds Scattered Clouds 12000 ft
Windchill 8 °F
Dew Point 8 °F
Humidity 74%
Rainfall 0.00 in
Snow Depth Not available.
UV 0 out of 12
Pollen .40 out of 12
Air Quality Not available.
Flu Activity Not available.
METAR KHZY 030853Z AUTO 11004KT 10SM SCT120 M09/M13 A3031 RMK AO2 SLP280 T10941133 56019

More Conditions Fewer Conditions

10-Day Weather Forecast

Almanac

Astronomy

Mar. 03, 2015 Rise Set
Actual Time
Civil Twilight
Nautical Twilight
Astronomical Twilight
Moon
Length of Visible Light
Length of Day
Tomorrow will be .
, % of the Moon is Illuminated

Today's Extremes

State Highs State Lows

Community

WunderPhotos

Upload Photos

1,802,075 photos uploaded!

WunderBlogs® & News

Nearby

Air Quality

  Air Quality AQ Index Pollutant
Not available.

Snow Depth

Station Depth Elevation

Earthquake Activity

City Distance Mag. Time & Date
Minimum magnitude displayed is 2.5.

Coastal Water Temperatures

Place Temperature

Nearby Weather Stations

Winter Weather Advisory
Statement as of 3:57 AM EST on March 03, 2015

... Winter Weather Advisory now in effect from 10 am this morning
to 4 PM EST this afternoon...

* ice accumulations... a tenth of an inch or less.

* Snow/sleet accumulations... .an inch or less.

* Snow/ice beginning... snow will begin near or shortly after the
morning commute. The transition to sleet and freezing rain will
occur around noon and could continue into mid afternoon before
changing over to all rain.

* Snow/ice ending... rain is expected by late afternoon.

* Impacts... hazardous travel conditions are expected due to
snow... sleet and ice covered roads. Untreated roads and
sidewalks will be slippery.

Precautionary/preparedness actions...

A Winter Weather Advisory is normally issued for a variety of
winter weather conditions such as light snow... blowing snow...
sleet... freezing rain and wind chills. While the weather will be
significant... the word advisory implies that severe winter
weather is not anticipated. Stay tuned to NOAA Weather Radio for
further details or updates.